createdAt,value
2018-04-09T00:00:50.026Z,6.23
2018-04-09T00:02:54.157Z,6.67
2018-04-09T00:04:57.465Z,5.57
2018-04-09T00:07:00.864Z,6.07
2018-04-09T00:09:04.211Z,7.63
2018-04-09T00:11:07.608Z,7.10
2018-04-09T00:13:10.946Z,7.63
2018-04-09T00:15:14.284Z,8.57
2018-04-09T00:17:18.648Z,8.77
2018-04-09T00:19:22.812Z,8.23
2018-04-09T00:21:26.926Z,8.37
2018-04-09T00:23:31.029Z,8.10
2018-04-09T00:25:34.351Z,7.33
2018-04-09T00:27:37.671Z,6.67
2018-04-09T00:29:41.036Z,6.60
2018-04-09T00:31:44.394Z,6.07
2018-04-09T00:33:47.740Z,7.43
2018-04-09T00:35:51.091Z,6.60
2018-04-09T00:37:54.435Z,6.20
2018-04-09T00:39:57.760Z,6.90
2018-04-09T00:42:01.909Z,6.83
2018-04-09T00:44:05.280Z,6.20
2018-04-09T00:46:09.379Z,6.90
2018-04-09T00:48:12.702Z,6.23
2018-04-09T00:50:16.045Z,6.20
2018-04-09T00:52:19.399Z,6.70
2018-04-09T00:54:22.737Z,5.90
2018-04-09T00:56:26.834Z,6.47
2018-04-09T00:58:30.151Z,6.90
2018-04-09T01:00:33.502Z,6.07
2018-04-09T01:02:36.849Z,6.13
2018-04-09T01:04:40.177Z,5.60
2018-04-09T01:06:43.561Z,6.70
2018-04-09T01:08:46.910Z,6.80
2018-04-09T01:10:50.256Z,6.23
2018-04-09T01:12:53.594Z,5.67
2018-04-09T01:14:56.939Z,6.20
2018-04-09T01:17:00.270Z,6.40
2018-04-09T01:19:03.631Z,5.73
2018-04-09T01:21:06.979Z,6.43
2018-04-09T01:23:10.324Z,6.23
2018-04-09T01:25:13.663Z,6.20
2018-04-09T01:27:17.038Z,6.13
2018-04-09T01:29:20.450Z,6.40
2018-04-09T01:31:23.798Z,6.37
2018-04-09T01:33:27.123Z,5.60
2018-04-09T01:35:30.501Z,6.67
2018-04-09T01:37:34.583Z,6.80
2018-04-09T01:39:37.966Z,6.40
2018-04-09T01:41:41.309Z,5.87
2018-04-09T01:43:44.650Z,6.50
2018-04-09T01:45:48.872Z,6.73
2018-04-09T01:47:52.973Z,6.53
2018-04-09T01:49:56.318Z,6.10
2018-04-09T01:51:59.644Z,6.43
2018-04-09T01:54:03.002Z,6.80
2018-04-09T01:56:07.142Z,6.90
2018-04-09T01:58:11.265Z,6.43
2018-04-09T02:00:14.649Z,5.93
2018-04-09T02:02:18.781Z,6.80
2018-04-09T02:04:22.875Z,6.97
2018-04-09T02:06:26.193Z,6.53
2018-04-09T02:08:29.550Z,7.50
2018-04-09T02:10:32.897Z,5.93
2018-04-09T02:12:36.233Z,6.80
2018-04-09T02:14:39.639Z,6.20
2018-04-09T02:16:42.989Z,6.63
2018-04-09T02:18:46.297Z,6.60
2018-04-09T02:20:50.428Z,6.60
2018-04-09T02:22:53.749Z,6.00
2018-04-09T02:24:57.081Z,6.77
2018-04-09T02:27:00.456Z,6.80
2018-04-09T02:29:03.760Z,6.57
2018-04-09T02:31:07.088Z,7.03
2018-04-09T02:33:10.396Z,6.90
2018-04-09T02:35:14.510Z,7.57
2018-04-09T02:37:18.066Z,6.10
2018-04-09T02:39:21.395Z,6.07
2018-04-09T02:41:24.728Z,6.23
2018-04-09T02:43:28.057Z,6.30
2018-04-09T02:45:31.425Z,5.83
2018-04-09T02:47:34.780Z,6.40
2018-04-09T02:49:38.126Z,6.63
2018-04-09T02:51:41.449Z,6.13
2018-04-09T02:53:44.798Z,5.60
2018-04-09T02:55:48.146Z,5.50
2018-04-09T02:57:51.810Z,6.50
2018-04-09T02:59:55.950Z,6.33
2018-04-09T03:01:59.284Z,7.40
2018-04-09T03:04:03.430Z,7.00
2018-04-09T03:06:07.537Z,6.67
2018-04-09T03:08:10.935Z,6.93
2018-04-09T03:10:15.045Z,7.10
2018-04-09T03:12:19.136Z,6.20
2018-04-09T03:14:23.217Z,7.17
2018-04-09T03:16:26.557Z,7.77
2018-04-09T03:18:29.919Z,6.93
2018-04-09T03:20:33.233Z,6.83
2018-04-09T03:22:36.590Z,6.70
2018-04-09T03:24:39.918Z,7.00
2018-04-09T03:26:43.276Z,6.97
2018-04-09T03:28:46.591Z,7.10
2018-04-09T03:30:50.681Z,8.13
2018-04-09T03:32:54.004Z,6.80
2018-04-09T03:34:57.321Z,7.63
2018-04-09T03:37:00.659Z,7.20
2018-04-09T03:39:03.998Z,6.60
2018-04-09T03:41:07.350Z,6.50
2018-04-09T03:43:10.689Z,7.20
2018-04-09T03:45:14.063Z,7.30
2018-04-09T03:47:17.404Z,6.40
2018-04-09T03:49:20.742Z,6.40
2018-04-09T03:51:24.086Z,8.13
2018-04-09T03:53:27.457Z,7.70
2018-04-09T03:55:30.796Z,7.47
2018-04-09T03:57:34.878Z,7.23
2018-04-09T03:59:38.223Z,7.40
2018-04-09T04:01:41.597Z,7.33
2018-04-09T04:03:45.690Z,7.90
2018-04-09T04:05:49.005Z,7.53
2018-04-09T04:07:52.310Z,7.40
2018-04-09T04:09:55.626Z,7.23
2018-04-09T04:11:58.957Z,7.53
2018-04-09T04:14:03.064Z,7.17
2018-04-09T04:16:18.872Z,6.80
2018-04-09T04:18:33.972Z,7.03
2018-04-09T04:20:49.260Z,7.00
2018-04-09T04:22:52.595Z,7.00
2018-04-09T04:24:55.971Z,7.13
2018-04-09T04:26:59.383Z,7.57
2018-04-09T04:29:02.716Z,7.10
2018-04-09T04:31:06.089Z,7.20
2018-04-09T04:33:09.519Z,7.20
2018-04-09T04:35:12.829Z,7.10
2018-04-09T04:37:16.905Z,7.80
2018-04-09T04:39:20.281Z,7.00
2018-04-09T04:41:25.241Z,8.63
2018-04-09T04:43:28.574Z,7.87
2018-04-09T04:45:31.914Z,7.60
2018-04-09T04:47:35.300Z,8.47
2018-04-09T04:49:38.625Z,8.30
2018-04-09T04:51:42.718Z,7.20
2018-04-09T04:53:46.047Z,7.63
2018-04-09T04:55:49.386Z,7.50
2018-04-09T04:57:52.769Z,8.20
2018-04-09T04:59:56.098Z,7.50
2018-04-09T05:01:59.445Z,8.60
2018-04-09T05:04:02.789Z,7.83
2018-04-09T05:06:06.133Z,8.17
2018-04-09T05:08:09.543Z,8.40
2018-04-09T05:10:12.872Z,7.40
2018-04-09T05:12:16.575Z,7.37
2018-04-09T05:14:19.931Z,7.30
2018-04-09T05:16:24.051Z,7.57
2018-04-09T05:18:28.205Z,8.17
2018-04-09T05:20:32.265Z,8.33
2018-04-09T05:22:36.450Z,8.50
2018-04-09T05:24:39.774Z,8.60
2018-04-09T05:26:43.192Z,9.33
2018-04-09T05:28:46.909Z,9.50
2018-04-09T05:30:50.324Z,9.77
2018-04-09T05:32:53.642Z,8.80
2018-04-09T05:34:57.013Z,10.47
2018-04-09T05:37:01.331Z,10.27
2018-04-09T05:39:05.495Z,9.63
2018-04-09T05:41:08.845Z,9.30
2018-04-09T05:43:12.940Z,9.10
2018-04-09T05:45:16.260Z,8.77
2018-04-09T05:47:21.699Z,8.87
2018-04-09T05:49:26.714Z,8.70
2018-04-09T05:51:30.819Z,8.77
2018-04-09T05:53:34.136Z,7.97
2018-04-09T05:55:38.219Z,8.30
2018-04-09T05:57:41.539Z,8.20
2018-04-09T05:59:45.655Z,7.93
2018-04-09T06:01:49.018Z,8.37
2018-04-09T06:03:52.357Z,6.80
2018-04-09T06:05:55.685Z,7.63
2018-04-09T06:07:59.019Z,8.33
2018-04-09T06:10:02.473Z,8.30
2018-04-09T06:12:07.661Z,8.57
2018-04-09T06:14:10.989Z,8.43
2018-04-09T06:16:15.529Z,8.60
2018-04-09T06:18:19.394Z,8.90
2018-04-09T06:20:22.832Z,8.80
2018-04-09T06:22:26.186Z,9.47
2018-04-09T06:24:29.592Z,9.10
2018-04-09T06:26:32.981Z,9.93
2018-04-09T06:28:36.322Z,9.30
2018-04-09T06:30:39.670Z,9.17
2018-04-09T06:32:43.781Z,10.20
2018-04-09T06:34:47.172Z,10.53
2018-04-09T06:36:51.046Z,12.77
2018-04-09T06:38:54.605Z,13.40
2018-04-09T06:40:59.648Z,12.13
2018-04-09T06:43:02.981Z,13.50
2018-04-09T06:45:06.293Z,11.60
2018-04-09T06:47:09.642Z,12.60
2018-04-09T06:49:13.006Z,10.77
2018-04-09T06:51:17.294Z,11.13
2018-04-09T06:53:21.401Z,10.77
2018-04-09T06:55:24.742Z,11.63
2018-04-09T06:57:28.078Z,12.40
2018-04-09T06:59:31.409Z,11.40
2018-04-09T07:01:34.773Z,11.40
2018-04-09T07:03:38.902Z,11.10
2018-04-09T07:05:42.267Z,12.20
2018-04-09T07:07:45.619Z,12.00
2018-04-09T07:09:48.950Z,12.30
2018-04-09T07:11:52.326Z,12.80
2018-04-09T07:13:55.690Z,11.67
2018-04-09T07:15:59.020Z,13.10
2018-04-09T07:18:02.378Z,12.53
2018-04-09T07:20:05.745Z,12.20
2018-04-09T07:22:09.140Z,13.00
2018-04-09T07:24:12.533Z,11.83
2018-04-09T07:26:15.902Z,13.13
2018-04-09T07:28:20.002Z,13.80
2018-04-09T07:30:24.113Z,14.47
2018-04-09T07:32:28.992Z,12.70
2018-04-09T07:34:32.315Z,13.80
2018-04-09T07:36:35.653Z,12.60
2018-04-09T07:38:39.021Z,11.97
2018-04-09T07:40:43.181Z,12.77
2018-04-09T07:42:46.555Z,12.63
2018-04-09T07:44:49.919Z,12.70
2018-04-09T07:46:53.252Z,12.07
2018-04-09T07:48:57.371Z,12.50
2018-04-09T07:51:02.308Z,12.17
2018-04-09T07:53:05.680Z,13.50
2018-04-09T07:55:09.027Z,12.53
2018-04-09T07:57:13.135Z,12.63
2018-04-09T07:59:17.248Z,13.07
2018-04-09T08:01:20.616Z,11.20
2018-04-09T08:03:23.994Z,12.13
2018-04-09T08:05:27.346Z,11.73
2018-04-09T08:07:31.401Z,12.30
2018-04-09T08:09:34.765Z,11.87
2018-04-09T08:11:38.957Z,12.00
2018-04-09T08:13:44.357Z,12.67
2018-04-09T08:15:47.760Z,12.80
2018-04-09T08:17:53.734Z,10.80
2018-04-09T08:19:57.878Z,12.90
2018-04-09T08:22:02.430Z,10.77
2018-04-09T08:24:05.811Z,12.97
2018-04-09T08:26:09.161Z,12.40
2018-04-09T08:28:12.500Z,12.17
2018-04-09T08:30:16.615Z,12.40
2018-04-09T08:32:20.025Z,11.10
2018-04-09T08:34:23.478Z,12.07
2018-04-09T08:36:27.680Z,12.23
2018-04-09T08:38:31.818Z,11.70
2018-04-09T08:40:36.152Z,12.27
2018-04-09T08:42:40.253Z,13.33
2018-04-09T08:44:43.632Z,11.90
2018-04-09T08:46:48.679Z,12.77
2018-04-09T08:48:56.785Z,12.30
2018-04-09T08:51:00.187Z,12.10
2018-04-09T08:53:04.359Z,11.67
2018-04-09T08:55:08.396Z,13.40
2018-04-09T08:57:12.499Z,10.93
2018-04-09T08:59:15.871Z,11.07
2018-04-09T09:01:19.286Z,11.60
2018-04-09T09:03:23.861Z,11.27
2018-04-09T09:05:28.506Z,11.20
2018-04-09T09:07:31.870Z,11.20
2018-04-09T09:09:35.274Z,11.57
2018-04-09T09:11:38.709Z,11.47
2018-04-09T09:13:42.077Z,11.93
2018-04-09T09:15:47.347Z,11.97
2018-04-09T09:17:50.784Z,10.53
2018-04-09T09:22:05.258Z,11.97
2018-04-09T09:24:09.498Z,11.20
2018-04-09T09:26:15.060Z,10.87
2018-04-09T09:28:19.542Z,10.57
2018-04-09T09:30:22.880Z,10.57
2018-04-09T09:32:26.243Z,10.67
2018-04-09T09:34:29.583Z,10.50
2018-04-09T09:36:33.287Z,12.07
2018-04-09T09:38:37.567Z,11.33
2018-04-09T09:40:40.916Z,12.30
2018-04-09T09:42:44.497Z,10.80
2018-04-09T09:44:48.424Z,10.50
2018-04-09T09:46:51.784Z,10.80
2018-04-09T09:48:55.965Z,11.47
2018-04-09T09:50:59.364Z,10.33
2018-04-09T09:53:02.736Z,10.47
2018-04-09T09:55:06.841Z,10.63
2018-04-09T09:57:10.958Z,10.10
2018-04-09T09:59:15.900Z,11.27
2018-04-09T10:01:19.275Z,9.97
2018-04-09T10:03:29.344Z,9.77
2018-04-09T10:05:33.537Z,10.03
2018-04-09T10:07:37.668Z,10.13
2018-04-09T10:09:41.018Z,9.90
2018-04-09T10:11:44.416Z,9.30
2018-04-09T10:13:48.555Z,10.97
2018-04-09T10:15:52.145Z,10.70
2018-04-09T10:17:55.513Z,10.40
2018-04-09T10:19:59.669Z,10.27
2018-04-09T10:22:02.992Z,10.27
2018-04-09T10:24:07.073Z,9.53
2018-04-09T10:26:10.412Z,10.57
2018-04-09T10:28:13.764Z,10.23
2018-04-09T10:30:17.788Z,10.33
2018-04-09T10:32:21.141Z,10.80
2018-04-09T10:34:24.559Z,9.80
2018-04-09T10:36:27.974Z,10.40
2018-04-09T10:38:31.312Z,10.90
2018-04-09T10:40:34.798Z,9.80
2018-04-09T10:42:39.374Z,9.50
2018-04-09T10:44:42.809Z,10.50
2018-04-09T10:46:47.055Z,9.80
2018-04-09T10:48:50.426Z,10.07
2018-04-09T10:50:53.799Z,9.47
2018-04-09T10:52:57.944Z,10.23
2018-04-09T10:55:01.392Z,10.00
2018-04-09T10:57:04.774Z,9.97
2018-04-09T10:59:08.150Z,10.47
2018-04-09T11:01:11.510Z,9.00
2018-04-09T11:03:14.827Z,10.00
2018-04-09T11:05:18.147Z,9.00
2018-04-09T11:07:21.483Z,9.00
2018-04-09T11:09:24.838Z,9.30
2018-04-09T11:11:28.956Z,9.80
2018-04-09T11:13:32.298Z,10.80
2018-04-09T11:15:36.415Z,9.10
2018-04-09T11:17:40.824Z,9.60
2018-04-09T11:19:44.166Z,10.27
2018-04-09T11:21:48.286Z,9.93
2018-04-09T11:23:51.630Z,9.40
2018-04-09T11:25:55.011Z,10.60
2018-04-09T11:27:58.338Z,10.23
2018-04-09T11:30:01.668Z,10.30
2018-04-09T11:32:05.820Z,10.87
2018-04-09T11:34:09.159Z,9.20
2018-04-09T11:36:12.521Z,10.30
2018-04-09T11:38:16.721Z,9.90
2018-04-09T11:40:21.551Z,9.40
2018-04-09T11:42:25.224Z,10.30
2018-04-09T11:44:29.346Z,11.67
2018-04-09T11:46:32.745Z,11.60
2018-04-09T11:48:36.118Z,10.70
2018-04-09T11:50:39.613Z,11.50
2018-04-09T11:52:42.982Z,11.20
2018-04-09T11:54:46.307Z,10.70
2018-04-09T11:56:49.663Z,10.30
2018-04-09T11:58:53.006Z,11.90
2018-04-09T12:00:56.354Z,11.70
2018-04-09T12:02:59.696Z,11.43
2018-04-09T12:05:03.060Z,10.80
2018-04-09T12:07:06.415Z,10.27
2018-04-09T12:09:09.768Z,10.97
2018-04-09T12:11:13.123Z,11.93
2018-04-09T12:13:16.499Z,11.87
2018-04-09T12:15:20.609Z,11.00
2018-04-09T12:17:23.947Z,12.00
2018-04-09T12:19:27.305Z,11.37
2018-04-09T12:21:30.616Z,12.30
2018-04-09T12:23:33.985Z,11.93
2018-04-09T12:25:37.306Z,11.70
2018-04-09T12:27:40.668Z,10.60
2018-04-09T12:29:44.036Z,11.20
2018-04-09T12:31:47.391Z,11.47
2018-04-09T12:33:50.764Z,12.10
2018-04-09T12:35:54.096Z,12.73
2018-04-09T12:37:57.451Z,12.27
2018-04-09T12:40:00.810Z,12.40
2018-04-09T12:42:04.209Z,12.70
2018-04-09T12:44:07.575Z,11.97
2018-04-09T12:46:11.045Z,10.93
2018-04-09T12:48:15.155Z,9.93
2018-04-09T12:50:19.244Z,10.43
2018-04-09T12:52:23.364Z,10.60
2018-04-09T12:54:27.465Z,10.70
2018-04-09T12:56:30.878Z,11.37
2018-04-09T12:58:34.964Z,11.67
2018-04-09T13:00:39.107Z,11.13
2018-04-09T13:02:42.467Z,11.60
2018-04-09T13:04:45.820Z,11.00
2018-04-09T13:06:49.169Z,10.13
2018-04-09T13:08:53.291Z,11.43
2018-04-09T13:10:58.246Z,11.80
2018-04-09T13:13:01.566Z,11.27
2018-04-09T13:15:05.359Z,10.80
2018-04-09T13:17:08.717Z,10.47
2018-04-09T13:19:12.050Z,10.93
2018-04-09T13:21:15.386Z,11.40
2018-04-09T13:23:18.777Z,11.43
2018-04-09T13:25:22.131Z,11.20
2018-04-09T13:27:25.451Z,10.60
2018-04-09T13:29:28.785Z,11.00
2018-04-09T13:31:32.126Z,10.30
2018-04-09T13:33:36.270Z,11.30
2018-04-09T13:35:39.742Z,10.40
2018-04-09T13:37:43.204Z,10.60
2018-04-09T13:39:46.824Z,11.03
2018-04-09T13:41:50.175Z,10.50
2018-04-09T13:43:53.645Z,11.60
2018-04-09T13:45:57.800Z,12.80
2018-04-09T13:48:01.117Z,9.33
2018-04-09T13:50:05.323Z,8.87
2018-04-09T13:52:09.765Z,9.17
2018-04-09T13:54:13.554Z,9.10
2018-04-09T13:56:17.662Z,9.03
2018-04-09T13:58:22.359Z,8.57
2018-04-09T14:00:30.409Z,8.20
2018-04-09T14:02:35.434Z,6.53
2018-04-09T14:04:39.701Z,9.40
2018-04-09T14:06:43.021Z,7.63
2018-04-09T14:08:47.128Z,4.47
2018-04-09T14:10:50.459Z,3.90
2018-04-09T14:12:53.766Z,4.20
2018-04-09T14:14:57.107Z,4.63
2018-04-09T14:17:01.526Z,4.37
2018-04-09T14:19:06.671Z,4.33
2018-04-09T14:21:10.588Z,4.00
2018-04-09T14:23:14.919Z,4.70
2018-04-09T14:25:19.756Z,3.90
2018-04-09T14:27:23.335Z,5.20
2018-04-09T14:29:28.381Z,4.57
2018-04-09T14:31:31.943Z,4.07
2018-04-09T14:33:35.315Z,3.60
2018-04-09T14:35:39.411Z,5.60
2018-04-09T14:37:43.505Z,3.97
2018-04-09T14:39:47.048Z,4.10
2018-04-09T14:41:50.401Z,5.10
2018-04-09T14:43:54.140Z,4.30
2018-04-09T14:45:57.802Z,3.40
2018-04-09T14:48:01.324Z,3.80
2018-04-09T14:50:05.566Z,4.23
2018-04-09T14:52:10.010Z,3.50
2018-04-09T14:54:13.450Z,4.53
2018-04-09T14:56:17.700Z,3.60
2018-04-09T14:58:22.267Z,3.87
2018-04-09T15:00:27.028Z,4.37
2018-04-09T15:02:30.518Z,3.50
2018-04-09T15:04:33.881Z,3.60
2018-04-09T15:06:38.045Z,3.90
2018-04-09T15:08:41.827Z,4.10
2018-04-09T15:10:45.214Z,4.23
2018-04-09T15:12:50.323Z,3.90
2018-04-09T15:14:53.931Z,3.93
2018-04-09T15:16:58.185Z,3.60
2018-04-09T15:19:01.868Z,3.97
2018-04-09T15:21:06.942Z,4.90
2018-04-09T15:23:10.262Z,3.70
2018-04-09T15:25:14.015Z,4.63
2018-04-09T15:27:17.542Z,4.47
2018-04-09T15:29:20.996Z,4.80
2018-04-09T15:31:24.393Z,4.73
2018-04-09T15:33:29.011Z,5.10
2018-04-09T15:35:32.407Z,5.23
2018-04-09T15:37:36.035Z,4.80
2018-04-09T15:39:39.398Z,5.00
2018-04-09T15:41:44.431Z,5.20
2018-04-09T15:43:47.931Z,4.33
2018-04-09T15:45:51.285Z,4.87
2018-04-09T15:47:54.853Z,4.60
2018-04-09T15:49:58.273Z,4.77
2018-04-09T15:52:02.515Z,4.80
2018-04-09T15:54:05.832Z,5.03
2018-04-09T15:56:09.227Z,5.50
2018-04-09T15:58:12.616Z,5.77
2018-04-09T16:00:16.031Z,5.30
2018-04-09T16:02:19.375Z,5.80
2018-04-09T16:04:23.567Z,6.37
2018-04-09T16:06:27.723Z,4.73
2018-04-09T16:08:31.072Z,6.00
2018-04-09T16:10:34.386Z,5.80
2018-04-09T16:12:37.778Z,6.10
2018-04-09T16:14:41.094Z,6.40
2018-04-09T16:16:45.173Z,6.53
2018-04-09T16:18:48.504Z,7.60
2018-04-09T16:20:52.348Z,6.47
2018-04-09T16:22:55.749Z,7.53
2018-04-09T16:24:59.950Z,6.83
2018-04-09T16:27:03.873Z,5.87
2018-04-09T16:29:08.531Z,6.00
2018-04-09T16:31:12.005Z,6.27
2018-04-09T16:33:15.419Z,5.70
2018-04-09T16:35:19.605Z,6.10
2018-04-09T16:37:23.784Z,5.80
2018-04-09T16:39:27.212Z,6.60
2018-04-09T16:41:30.598Z,5.90
2018-04-09T16:43:33.928Z,6.60
2018-04-09T16:45:38.667Z,5.70
2018-04-09T16:47:43.393Z,6.40
2018-04-09T16:49:47.492Z,5.53
2018-04-09T16:51:50.869Z,5.60
2018-04-09T16:53:54.959Z,6.87
2018-04-09T16:55:59.067Z,7.00
2018-04-09T16:58:03.177Z,6.50
2018-04-09T17:00:07.268Z,6.60
2018-04-09T17:02:10.628Z,5.87
2018-04-09T17:04:14.828Z,6.53
2018-04-09T17:06:18.637Z,6.17
2018-04-09T17:08:23.139Z,6.17
2018-04-09T17:10:27.852Z,6.17
2018-04-09T17:12:31.974Z,6.23
2018-04-09T17:14:36.315Z,6.00
2018-04-09T17:16:39.817Z,5.90
2018-04-09T17:18:43.171Z,6.40
2018-04-09T17:20:46.564Z,5.73
2018-04-09T17:22:52.453Z,5.83
2018-04-09T17:24:57.409Z,6.00
2018-04-09T17:27:02.680Z,6.20
2018-04-09T17:29:09.281Z,6.00
2018-04-09T17:31:14.238Z,5.33
2018-04-09T17:33:19.484Z,5.00
2018-04-09T17:35:26.120Z,5.40
2018-04-09T17:37:30.381Z,6.00
2018-04-09T17:39:36.321Z,5.33
2018-04-09T17:41:41.162Z,5.10
2018-04-09T17:43:46.519Z,5.00
2018-04-09T17:45:50.877Z,5.63
2018-04-09T17:47:54.520Z,4.87
2018-04-09T17:49:57.913Z,5.60
2018-04-09T17:52:01.354Z,4.80
2018-04-09T17:54:04.906Z,5.60
2018-04-09T17:56:09.744Z,5.73
2018-04-09T17:58:13.952Z,4.93
2018-04-09T18:00:18.292Z,5.10
2018-04-09T18:02:22.753Z,5.27
2018-04-09T18:04:29.174Z,5.40
2018-04-09T18:06:32.857Z,6.90
2018-04-09T18:08:36.204Z,5.90
2018-04-09T18:10:39.671Z,6.30
2018-04-09T18:12:43.145Z,5.77
2018-04-09T18:14:46.622Z,5.80
2018-04-09T18:16:49.993Z,6.30
2018-04-09T18:18:54.122Z,6.27
2018-04-09T18:20:57.572Z,9.50
2018-04-09T18:23:03.845Z,10.67
2018-04-09T18:25:07.374Z,7.77
2018-04-09T18:27:10.790Z,11.20
2018-04-09T18:29:15.721Z,8.87
2018-04-09T18:31:20.001Z,6.37
2018-04-09T18:33:23.331Z,9.07
2018-04-09T18:37:36.276Z,6.80
2018-04-09T18:39:40.266Z,7.40
2018-04-09T18:41:44.593Z,6.70
2018-04-09T18:43:48.040Z,7.03
2018-04-09T18:45:51.377Z,7.23
2018-04-09T18:47:54.741Z,6.00
2018-04-09T18:50:00.093Z,7.07
2018-04-09T18:52:04.635Z,5.83
2018-04-09T18:54:08.101Z,6.10
2018-04-09T18:56:11.462Z,6.50
2018-04-09T18:58:15.416Z,6.30
2018-04-09T19:00:18.788Z,6.60
2018-04-09T19:02:22.257Z,6.40
2018-04-09T19:04:26.216Z,6.50
2018-04-09T19:06:29.661Z,6.80
2018-04-09T19:08:33.829Z,7.00
2018-04-09T19:10:37.470Z,7.70
2018-04-09T19:12:40.842Z,7.63
2018-04-09T19:14:44.972Z,6.83
2018-04-09T19:16:49.127Z,8.30
2018-04-09T19:18:53.395Z,10.13
2018-04-09T19:20:57.545Z,11.93
2018-04-09T19:23:00.937Z,11.20
2018-04-09T19:25:04.757Z,11.20
2018-04-09T19:27:08.468Z,11.97
2018-04-09T19:29:11.831Z,12.57
2018-04-09T19:31:15.152Z,12.60
2018-04-09T19:33:19.299Z,12.83
2018-04-09T19:35:22.624Z,14.93
2018-04-09T19:37:31.674Z,13.57
2018-04-09T19:42:17.073Z,13.27
2018-04-09T19:44:21.208Z,13.57
2018-04-09T19:46:24.572Z,12.73
2018-04-09T19:48:28.684Z,12.40
2018-04-09T19:50:32.794Z,14.70
2018-04-09T19:52:36.124Z,13.13
2018-04-09T19:54:39.506Z,13.57
2018-04-09T19:56:42.860Z,13.17
2018-04-09T19:58:46.974Z,13.40
2018-04-09T20:00:51.119Z,12.27
2018-04-09T20:02:54.463Z,12.00
2018-04-09T20:04:58.619Z,11.27
2018-04-09T20:07:01.968Z,11.53
2018-04-09T20:09:06.121Z,12.40
2018-04-09T20:11:09.575Z,10.87
2018-04-09T20:13:12.933Z,11.03
2018-04-09T20:15:16.283Z,11.93
2018-04-09T20:17:19.617Z,9.53
2018-04-09T20:19:22.962Z,10.47
2018-04-09T20:21:26.321Z,10.37
2018-04-09T20:23:29.689Z,8.97
2018-04-09T20:25:33.090Z,10.67
2018-04-09T20:27:36.423Z,10.10
2018-04-09T20:29:39.768Z,9.50
2018-04-09T20:31:43.119Z,10.00
2018-04-09T20:33:46.450Z,10.43
2018-04-09T20:35:49.774Z,9.63
2018-04-09T20:37:53.089Z,8.63
2018-04-09T20:39:56.422Z,9.30
2018-04-09T20:41:59.791Z,7.90
2018-04-09T20:44:03.139Z,9.00
2018-04-09T20:46:06.497Z,8.10
2018-04-09T20:48:09.876Z,9.23
2018-04-09T20:50:13.228Z,8.00
2018-04-09T20:52:16.611Z,8.20
2018-04-09T20:54:20.003Z,8.13
2018-04-09T20:56:24.115Z,7.60
2018-04-09T20:58:27.506Z,7.80
2018-04-09T21:00:30.848Z,8.50
2018-04-09T21:02:34.229Z,7.20
2018-04-09T21:04:38.352Z,8.37
2018-04-09T21:06:41.666Z,7.80
2018-04-09T21:08:45.009Z,8.07
2018-04-09T21:10:48.349Z,6.70
2018-04-09T21:12:52.499Z,6.87
2018-04-09T21:14:55.855Z,7.70
2018-04-09T21:16:59.172Z,8.27
2018-04-09T21:19:02.501Z,8.30
2018-04-09T21:21:05.857Z,7.20
2018-04-09T21:23:09.219Z,7.20
2018-04-09T21:25:12.541Z,7.37
2018-04-09T21:27:15.885Z,6.90
2018-04-09T21:29:20.195Z,7.33
2018-04-09T21:31:24.345Z,7.37
2018-04-09T21:33:29.326Z,9.03
2018-04-09T21:35:32.657Z,7.97
2018-04-09T21:37:36.767Z,6.70
2018-04-09T21:39:40.906Z,7.90
2018-04-09T21:41:44.258Z,8.10
2018-04-09T21:43:47.662Z,7.00
2018-04-09T21:45:51.784Z,6.13
2018-04-09T21:47:55.153Z,6.10
2018-04-09T21:49:58.526Z,7.10
2018-04-09T21:52:01.851Z,6.80
2018-04-09T21:54:06.011Z,7.03
2018-04-09T21:56:09.404Z,5.83
2018-04-09T21:58:12.736Z,7.00
2018-04-09T22:00:16.882Z,6.87
2018-04-09T22:02:20.993Z,6.37
2018-04-09T22:04:24.355Z,6.20
2018-04-09T22:06:28.473Z,6.83
2018-04-09T22:08:32.626Z,6.13
2018-04-09T22:10:35.996Z,6.30
2018-04-09T22:12:39.308Z,5.50
2018-04-09T22:14:42.788Z,5.80
2018-04-09T22:16:46.898Z,5.87
2018-04-09T22:18:50.733Z,5.53
2018-04-09T22:20:54.099Z,5.33
2018-04-09T22:22:57.630Z,6.70
2018-04-09T22:25:01.027Z,6.50
2018-04-09T22:27:05.113Z,5.80
2018-04-09T22:29:08.490Z,5.70
2018-04-09T22:31:11.809Z,6.57
2018-04-09T22:33:15.147Z,5.83
2018-04-09T22:35:18.503Z,6.17
2018-04-09T22:37:21.903Z,6.10
2018-04-09T22:39:26.055Z,7.03
2018-04-09T22:41:29.495Z,6.47
2018-04-09T22:43:32.853Z,5.83
2018-04-09T22:45:36.221Z,5.83
2018-04-09T22:47:39.548Z,6.00
2018-04-09T22:49:42.901Z,5.83
2018-04-09T22:51:46.250Z,4.80
2018-04-09T22:53:49.590Z,5.70
2018-04-09T22:55:52.946Z,5.70
2018-04-09T22:57:56.287Z,5.27
2018-04-09T22:59:59.602Z,5.40
2018-04-09T23:02:03.007Z,5.00
2018-04-09T23:04:06.359Z,5.63
2018-04-09T23:06:09.738Z,4.83
2018-04-09T23:08:13.074Z,5.60
2018-04-09T23:12:26.128Z,4.70
2018-04-09T23:14:29.460Z,5.47
2018-04-09T23:16:32.857Z,4.50
2018-04-09T23:18:36.201Z,6.00
2018-04-09T23:20:40.345Z,5.60
2018-04-09T23:22:43.673Z,5.23
2018-04-09T23:24:46.987Z,4.93
2018-04-09T23:26:50.339Z,4.90
2018-04-09T23:28:53.671Z,4.80
2018-04-09T23:30:56.980Z,5.53
2018-04-09T23:33:01.076Z,5.20
2018-04-09T23:35:05.165Z,5.33
2018-04-09T23:37:09.324Z,4.80
2018-04-09T23:39:12.696Z,5.03
2018-04-09T23:41:16.027Z,4.87
2018-04-09T23:43:19.362Z,5.53
2018-04-09T23:45:22.704Z,5.30
2018-04-09T23:47:26.066Z,5.10
2018-04-09T23:49:29.402Z,4.93
2018-04-09T23:51:32.728Z,5.70
2018-04-09T23:53:36.069Z,4.30
2018-04-09T23:55:39.412Z,5.23
2018-04-09T23:57:42.812Z,4.60
2018-04-09T23:59:46.886Z,4.70
